sensor_id;sensor_type;location;lat;lon;timestamp;temperature;humidity
4518;DHT22;2271;49.464;11.070;2022-11-12T00:01:17;8.40;99.90
4518;DHT22;2271;49.464;11.070;2022-11-12T00:03:43;8.40;99.90
4518;DHT22;2271;49.464;11.070;2022-11-12T00:06:08;8.30;99.90
4518;DHT22;2271;49.464;11.070;2022-11-12T00:08:34;8.20;99.90
4518;DHT22;2271;49.464;11.070;2022-11-12T00:10:59;8.30;99.90
4518;DHT22;2271;49.464;11.070;2022-11-12T00:13:25;8.30;99.90
4518;DHT22;2271;49.464;11.070;2022-11-12T00:15:51;8.30;99.90
4518;DHT22;2271;49.464;11.070;2022-11-12T00:18:16;8.30;99.90
4518;DHT22;2271;49.464;11.070;2022-11-12T00:20:43;8.30;99.90
4518;DHT22;2271;49.464;11.070;2022-11-12T00:23:09;8.30;99.90
4518;DHT22;2271;49.464;11.070;2022-11-12T00:25:34;8.20;99.90
4518;DHT22;2271;49.464;11.070;2022-11-12T00:28:09;8.20;99.90
4518;DHT22;2271;49.464;11.070;2022-11-12T00:30:37;8.10;99.90
4518;DHT22;2271;49.464;11.070;2022-11-12T00:33:03;8.10;99.90
4518;DHT22;2271;49.464;11.070;2022-11-12T00:35:33;8.20;99.90
4518;DHT22;2271;49.464;11.070;2022-11-12T00:37:59;8.20;99.90
4518;DHT22;2271;49.464;11.070;2022-11-12T00:40:25;8.20;99.90
4518;DHT22;2271;49.464;11.070;2022-11-12T00:42:52;8.10;99.90
4518;DHT22;2271;49.464;11.070;2022-11-12T00:45:20;8.10;99.90
4518;DHT22;2271;49.464;11.070;2022-11-12T00:47:46;8.10;99.90
4518;DHT22;2271;49.464;11.070;2022-11-12T00:50:12;8.10;99.90
4518;DHT22;2271;49.464;11.070;2022-11-12T00:52:38;8.00;99.90
4518;DHT22;2271;49.464;11.070;2022-11-12T00:55:04;8.10;99.90
4518;DHT22;2271;49.464;11.070;2022-11-12T00:57:30;8.00;99.90
4518;DHT22;2271;49.464;11.070;2022-11-12T00:59:56;8.00;99.90
4518;DHT22;2271;49.464;11.070;2022-11-12T01:02:21;8.00;99.90
4518;DHT22;2271;49.464;11.070;2022-11-12T01:04:47;7.90;99.90
4518;DHT22;2271;49.464;11.070;2022-11-12T01:07:13;7.90;99.90
4518;DHT22;2271;49.464;11.070;2022-11-12T01:09:40;7.80;99.90
4518;DHT22;2271;49.464;11.070;2022-11-12T01:12:05;7.90;99.90
4518;DHT22;2271;49.464;11.070;2022-11-12T01:14:31;7.80;99.90
4518;DHT22;2271;49.464;11.070;2022-11-12T01:16:57;7.80;99.90
4518;DHT22;2271;49.464;11.070;2022-11-12T01:19:23;7.80;99.90
4518;DHT22;2271;49.464;11.070;2022-11-12T01:21:48;7.80;99.90
4518;DHT22;2271;49.464;11.070;2022-11-12T01:24:14;7.90;99.90
4518;DHT22;2271;49.464;11.070;2022-11-12T01:26:39;7.90;99.90
4518;DHT22;2271;49.464;11.070;2022-11-12T01:29:05;7.90;99.90
4518;DHT22;2271;49.464;11.070;2022-11-12T01:31:33;7.90;99.90
4518;DHT22;2271;49.464;11.070;2022-11-12T01:34:05;7.90;99.90
4518;DHT22;2271;49.464;11.070;2022-11-12T01:36:37;8.00;99.90
4518;DHT22;2271;49.464;11.070;2022-11-12T01:39:07;8.00;99.90
4518;DHT22;2271;49.464;11.070;2022-11-12T01:41:36;8.00;99.90
4518;DHT22;2271;49.464;11.070;2022-11-12T01:52:45;8.00;99.90
4518;DHT22;2271;49.464;11.070;2022-11-12T01:55:16;8.00;99.90
4518;DHT22;2271;49.464;11.070;2022-11-12T01:57:51;8.00;99.90
4518;DHT22;2271;49.464;11.070;2022-11-12T02:00:18;8.00;99.90
4518;DHT22;2271;49.464;11.070;2022-11-12T02:02:48;8.00;99.90
4518;DHT22;2271;49.464;11.070;2022-11-12T02:05:16;7.90;99.90
4518;DHT22;2271;49.464;11.070;2022-11-12T02:07:45;7.90;99.90
4518;DHT22;2271;49.464;11.070;2022-11-12T02:10:11;8.00;99.90
4518;DHT22;2271;49.464;11.070;2022-11-12T02:12:38;8.00;99.90
4518;DHT22;2271;49.464;11.070;2022-11-12T02:15:24;8.00;99.90
4518;DHT22;2271;49.464;11.070;2022-11-12T02:17:50;7.90;99.90
4518;DHT22;2271;49.464;11.070;2022-11-12T02:20:16;8.00;99.90
4518;DHT22;2271;49.464;11.070;2022-11-12T02:22:43;8.00;99.90
4518;DHT22;2271;49.464;11.070;2022-11-12T02:25:12;8.00;99.90
4518;DHT22;2271;49.464;11.070;2022-11-12T02:27:39;8.00;99.90
4518;DHT22;2271;49.464;11.070;2022-11-12T02:30:05;8.00;99.90
4518;DHT22;2271;49.464;11.070;2022-11-12T02:32:31;8.00;99.90
4518;DHT22;2271;49.464;11.070;2022-11-12T02:34:57;8.00;99.90
4518;DHT22;2271;49.464;11.070;2022-11-12T02:37:22;8.00;99.90
4518;DHT22;2271;49.464;11.070;2022-11-12T02:39:48;8.00;99.90
4518;DHT22;2271;49.464;11.070;2022-11-12T02:42:13;8.00;99.90
4518;DHT22;2271;49.464;11.070;2022-11-12T02:44:39;7.90;99.90
4518;DHT22;2271;49.464;11.070;2022-11-12T02:47:05;7.80;99.90
4518;DHT22;2271;49.464;11.070;2022-11-12T02:49:30;7.80;99.90
4518;DHT22;2271;49.464;11.070;2022-11-12T02:51:56;7.80;99.90
4518;DHT22;2271;49.464;11.070;2022-11-12T02:54:21;7.90;99.90
4518;DHT22;2271;49.464;11.070;2022-11-12T02:56:47;7.90;99.90
4518;DHT22;2271;49.464;11.070;2022-11-12T02:59:13;7.90;99.90
4518;DHT22;2271;49.464;11.070;2022-11-12T03:01:38;8.00;99.90
4518;DHT22;2271;49.464;11.070;2022-11-12T03:04:04;7.90;99.90
4518;DHT22;2271;49.464;11.070;2022-11-12T03:06:29;8.00;99.90
4518;DHT22;2271;49.464;11.070;2022-11-12T03:08:55;7.90;99.90
4518;DHT22;2271;49.464;11.070;2022-11-12T03:11:20;7.90;99.90
4518;DHT22;2271;49.464;11.070;2022-11-12T03:13:46;7.90;99.90
4518;DHT22;2271;49.464;11.070;2022-11-12T03:16:12;7.90;99.90
4518;DHT22;2271;49.464;11.070;2022-11-12T03:18:37;7.90;99.90
4518;DHT22;2271;49.464;11.070;2022-11-12T03:21:04;7.90;99.90
4518;DHT22;2271;49.464;11.070;2022-11-12T03:23:30;7.90;99.90
4518;DHT22;2271;49.464;11.070;2022-11-12T03:25:56;8.00;99.90
4518;DHT22;2271;49.464;11.070;2022-11-12T03:28:21;8.00;99.90
4518;DHT22;2271;49.464;11.070;2022-11-12T03:30:47;8.00;99.90
4518;DHT22;2271;49.464;11.070;2022-11-12T03:33:13;8.00;99.90
4518;DHT22;2271;49.464;11.070;2022-11-12T03:35:40;8.00;99.90
4518;DHT22;2271;49.464;11.070;2022-11-12T03:38:06;8.00;99.90
4518;DHT22;2271;49.464;11.070;2022-11-12T03:40:32;8.00;99.90
4518;DHT22;2271;49.464;11.070;2022-11-12T03:42:58;8.10;99.90
4518;DHT22;2271;49.464;11.070;2022-11-12T03:45:25;8.10;99.90
4518;DHT22;2271;49.464;11.070;2022-11-12T03:47:53;8.10;99.90
4518;DHT22;2271;49.464;11.070;2022-11-12T03:50:21;8.00;99.90
4518;DHT22;2271;49.464;11.070;2022-11-12T03:52:49;8.00;99.90
4518;DHT22;2271;49.464;11.070;2022-11-12T03:55:16;7.90;99.90
4518;DHT22;2271;49.464;11.070;2022-11-12T03:57:43;7.90;99.90
4518;DHT22;2271;49.464;11.070;2022-11-12T04:00:10;7.80;99.90
4518;DHT22;2271;49.464;11.070;2022-11-12T04:02:36;7.80;99.90
4518;DHT22;2271;49.464;11.070;2022-11-12T04:05:03;7.70;99.90
4518;DHT22;2271;49.464;11.070;2022-11-12T04:10:41;7.60;99.90
4518;DHT22;2271;49.464;11.070;2022-11-12T04:13:07;7.60;99.90
4518;DHT22;2271;49.464;11.070;2022-11-12T04:15:51;7.60;99.90
4518;DHT22;2271;49.464;11.070;2022-11-12T04:18:36;7.70;99.90
4518;DHT22;2271;49.464;11.070;2022-11-12T04:21:24;7.70;99.90
4518;DHT22;2271;49.464;11.070;2022-11-12T04:24:08;7.80;99.90
4518;DHT22;2271;49.464;11.070;2022-11-12T04:26:54;7.80;99.90
4518;DHT22;2271;49.464;11.070;2022-11-12T04:29:20;7.80;99.90
4518;DHT22;2271;49.464;11.070;2022-11-12T04:32:04;7.70;99.90
4518;DHT22;2271;49.464;11.070;2022-11-12T04:34:30;7.70;99.90
4518;DHT22;2271;49.464;11.070;2022-11-12T04:36:55;7.70;99.90
4518;DHT22;2271;49.464;11.070;2022-11-12T04:39:21;7.70;99.90
4518;DHT22;2271;49.464;11.070;2022-11-12T04:41:46;7.70;99.90
4518;DHT22;2271;49.464;11.070;2022-11-12T04:44:30;7.70;99.90
4518;DHT22;2271;49.464;11.070;2022-11-12T04:47:15;7.70;99.90
4518;DHT22;2271;49.464;11.070;2022-11-12T04:49:40;7.80;99.90
4518;DHT22;2271;49.464;11.070;2022-11-12T04:52:06;7.70;99.90
4518;DHT22;2271;49.464;11.070;2022-11-12T04:54:32;7.70;99.90
4518;DHT22;2271;49.464;11.070;2022-11-12T04:56:58;7.70;99.90
4518;DHT22;2271;49.464;11.070;2022-11-12T04:59:24;7.70;99.90
4518;DHT22;2271;49.464;11.070;2022-11-12T05:01:49;7.60;99.90
4518;DHT22;2271;49.464;11.070;2022-11-12T05:04:15;7.60;99.90
4518;DHT22;2271;49.464;11.070;2022-11-12T05:06:41;7.60;99.90
4518;DHT22;2271;49.464;11.070;2022-11-12T05:09:20;7.50;99.90
4518;DHT22;2271;49.464;11.070;2022-11-12T05:11:46;7.40;99.90
4518;DHT22;2271;49.464;11.070;2022-11-12T05:14:13;7.30;99.90
4518;DHT22;2271;49.464;11.070;2022-11-12T05:16:38;7.30;99.90
4518;DHT22;2271;49.464;11.070;2022-11-12T05:19:04;7.30;99.90
4518;DHT22;2271;49.464;11.070;2022-11-12T05:21:30;7.30;99.90
4518;DHT22;2271;49.464;11.070;2022-11-12T05:24:14;7.30;99.90
4518;DHT22;2271;49.464;11.070;2022-11-12T05:26:40;7.30;99.90
4518;DHT22;2271;49.464;11.070;2022-11-12T05:29:06;7.30;99.90
4518;DHT22;2271;49.464;11.070;2022-11-12T05:31:32;7.40;99.90
4518;DHT22;2271;49.464;11.070;2022-11-12T05:33:58;7.40;99.90
4518;DHT22;2271;49.464;11.070;2022-11-12T05:36:23;7.40;99.90
4518;DHT22;2271;49.464;11.070;2022-11-12T05:38:49;7.40;99.90
4518;DHT22;2271;49.464;11.070;2022-11-12T05:41:14;7.40;99.90
4518;DHT22;2271;49.464;11.070;2022-11-12T05:43:40;7.40;99.90
4518;DHT22;2271;49.464;11.070;2022-11-12T05:46:06;7.30;99.90
4518;DHT22;2271;49.464;11.070;2022-11-12T05:48:32;7.30;99.90
4518;DHT22;2271;49.464;11.070;2022-11-12T05:50:57;7.30;99.90
4518;DHT22;2271;49.464;11.070;2022-11-12T05:53:23;7.30;99.90
4518;DHT22;2271;49.464;11.070;2022-11-12T05:55:48;7.40;99.90
4518;DHT22;2271;49.464;11.070;2022-11-12T05:58:14;7.40;99.90
4518;DHT22;2271;49.464;11.070;2022-11-12T06:00:39;7.40;99.90
4518;DHT22;2271;49.464;11.070;2022-11-12T06:03:06;7.30;99.90
4518;DHT22;2271;49.464;11.070;2022-11-12T06:05:32;7.30;99.90
4518;DHT22;2271;49.464;11.070;2022-11-12T06:07:58;7.30;99.90
4518;DHT22;2271;49.464;11.070;2022-11-12T06:10:24;7.30;99.90
4518;DHT22;2271;49.464;11.070;2022-11-12T06:12:50;7.30;99.90
4518;DHT22;2271;49.464;11.070;2022-11-12T06:15:17;7.30;99.90
4518;DHT22;2271;49.464;11.070;2022-11-12T06:17:42;7.20;99.90
4518;DHT22;2271;49.464;11.070;2022-11-12T06:20:09;7.20;99.90
4518;DHT22;2271;49.464;11.070;2022-11-12T06:22:34;7.30;99.90
4518;DHT22;2271;49.464;11.070;2022-11-12T06:25:00;7.20;99.90
4518;DHT22;2271;49.464;11.070;2022-11-12T06:27:26;7.20;99.90
4518;DHT22;2271;49.464;11.070;2022-11-12T06:29:51;7.10;99.90
4518;DHT22;2271;49.464;11.070;2022-11-12T06:32:17;7.10;99.90
4518;DHT22;2271;49.464;11.070;2022-11-12T06:34:43;7.10;99.90
4518;DHT22;2271;49.464;11.070;2022-11-12T06:37:08;7.10;99.90
4518;DHT22;2271;49.464;11.070;2022-11-12T06:39:34;7.10;99.90
4518;DHT22;2271;49.464;11.070;2022-11-12T06:41:59;7.10;99.90
4518;DHT22;2271;49.464;11.070;2022-11-12T06:44:26;7.10;99.90
4518;DHT22;2271;49.464;11.070;2022-11-12T06:46:52;7.10;99.90
4518;DHT22;2271;49.464;11.070;2022-11-12T06:49:18;7.10;99.90
4518;DHT22;2271;49.464;11.070;2022-11-12T06:51:44;7.20;99.90
4518;DHT22;2271;49.464;11.070;2022-11-12T06:54:09;7.20;99.90
4518;DHT22;2271;49.464;11.070;2022-11-12T06:56:35;7.10;99.90
4518;DHT22;2271;49.464;11.070;2022-11-12T06:59:01;7.20;99.90
4518;DHT22;2271;49.464;11.070;2022-11-12T07:01:27;7.00;99.90
4518;DHT22;2271;49.464;11.070;2022-11-12T07:03:52;6.90;99.90
4518;DHT22;2271;49.464;11.070;2022-11-12T07:06:19;7.00;99.90
4518;DHT22;2271;49.464;11.070;2022-11-12T07:08:46;7.10;99.90
4518;DHT22;2271;49.464;11.070;2022-11-12T07:11:12;7.00;99.90
4518;DHT22;2271;49.464;11.070;2022-11-12T07:13:38;7.00;99.90
4518;DHT22;2271;49.464;11.070;2022-11-12T07:16:05;7.10;99.90
4518;DHT22;2271;49.464;11.070;2022-11-12T07:18:36;7.20;99.90
4518;DHT22;2271;49.464;11.070;2022-11-12T07:21:07;7.20;99.90
4518;DHT22;2271;49.464;11.070;2022-11-12T07:23:35;7.20;99.90
4518;DHT22;2271;49.464;11.070;2022-11-12T07:26:06;7.30;99.90
4518;DHT22;2271;49.464;11.070;2022-11-12T07:28:32;7.30;99.90
4518;DHT22;2271;49.464;11.070;2022-11-12T07:31:00;7.40;99.90
4518;DHT22;2271;49.464;11.070;2022-11-12T07:33:27;7.30;99.90
4518;DHT22;2271;49.464;11.070;2022-11-12T07:35:57;7.40;99.90
4518;DHT22;2271;49.464;11.070;2022-11-12T07:38:24;7.40;99.90
4518;DHT22;2271;49.464;11.070;2022-11-12T07:40:49;7.20;99.90
4518;DHT22;2271;49.464;11.070;2022-11-12T07:43:15;7.10;99.90
4518;DHT22;2271;49.464;11.070;2022-11-12T07:45:40;7.20;99.90
4518;DHT22;2271;49.464;11.070;2022-11-12T07:48:06;7.20;99.90
4518;DHT22;2271;49.464;11.070;2022-11-12T07:50:31;7.10;99.90
4518;DHT22;2271;49.464;11.070;2022-11-12T07:52:58;7.20;99.90
4518;DHT22;2271;49.464;11.070;2022-11-12T07:55:23;7.20;99.90
4518;DHT22;2271;49.464;11.070;2022-11-12T07:57:49;7.40;99.90
4518;DHT22;2271;49.464;11.070;2022-11-12T08:00:15;7.50;99.90
4518;DHT22;2271;49.464;11.070;2022-11-12T08:02:40;7.60;99.90
4518;DHT22;2271;49.464;11.070;2022-11-12T08:05:06;7.70;99.90
4518;DHT22;2271;49.464;11.070;2022-11-12T08:07:32;7.60;99.90
4518;DHT22;2271;49.464;11.070;2022-11-12T08:09:57;7.70;99.90
4518;DHT22;2271;49.464;11.070;2022-11-12T08:12:23;7.60;99.90
4518;DHT22;2271;49.464;11.070;2022-11-12T08:14:49;7.60;99.90
4518;DHT22;2271;49.464;11.070;2022-11-12T08:17:14;7.50;99.90
4518;DHT22;2271;49.464;11.070;2022-11-12T08:19:40;7.60;99.90
4518;DHT22;2271;49.464;11.070;2022-11-12T08:22:05;7.60;99.90
4518;DHT22;2271;49.464;11.070;2022-11-12T08:24:31;7.80;99.90
4518;DHT22;2271;49.464;11.070;2022-11-12T08:26:56;7.80;99.90
4518;DHT22;2271;49.464;11.070;2022-11-12T08:29:22;7.90;99.90
4518;DHT22;2271;49.464;11.070;2022-11-12T08:31:48;7.90;99.90
4518;DHT22;2271;49.464;11.070;2022-11-12T08:34:13;8.00;99.90
4518;DHT22;2271;49.464;11.070;2022-11-12T08:36:39;8.10;99.90
4518;DHT22;2271;49.464;11.070;2022-11-12T08:39:06;8.10;99.90
4518;DHT22;2271;49.464;11.070;2022-11-12T08:41:32;8.10;99.90
4518;DHT22;2271;49.464;11.070;2022-11-12T08:43:58;8.10;99.90
4518;DHT22;2271;49.464;11.070;2022-11-12T08:46:23;8.20;99.90
4518;DHT22;2271;49.464;11.070;2022-11-12T08:48:49;8.30;99.90
4518;DHT22;2271;49.464;11.070;2022-11-12T08:51:15;8.30;99.90
4518;DHT22;2271;49.464;11.070;2022-11-12T08:53:40;8.30;99.90
4518;DHT22;2271;49.464;11.070;2022-11-12T08:56:06;8.40;99.90
4518;DHT22;2271;49.464;11.070;2022-11-12T08:58:32;8.40;99.90
4518;DHT22;2271;49.464;11.070;2022-11-12T09:01:03;8.40;99.90
4518;DHT22;2271;49.464;11.070;2022-11-12T09:03:29;8.50;99.90
4518;DHT22;2271;49.464;11.070;2022-11-12T09:05:55;8.60;99.90
4518;DHT22;2271;49.464;11.070;2022-11-12T09:08:22;8.50;99.90
4518;DHT22;2271;49.464;11.070;2022-11-12T09:10:49;8.60;99.90
4518;DHT22;2271;49.464;11.070;2022-11-12T09:13:15;8.60;99.90
4518;DHT22;2271;49.464;11.070;2022-11-12T09:15:42;8.60;99.90
4518;DHT22;2271;49.464;11.070;2022-11-12T09:18:12;8.60;99.90
4518;DHT22;2271;49.464;11.070;2022-11-12T09:20:38;8.60;99.90
4518;DHT22;2271;49.464;11.070;2022-11-12T09:23:09;8.60;99.90
4518;DHT22;2271;49.464;11.070;2022-11-12T09:25:36;8.60;99.90
4518;DHT22;2271;49.464;11.070;2022-11-12T09:28:06;8.60;99.90
4518;DHT22;2271;49.464;11.070;2022-11-12T09:30:33;8.60;99.90
4518;DHT22;2271;49.464;11.070;2022-11-12T09:32:58;8.60;99.90
4518;DHT22;2271;49.464;11.070;2022-11-12T09:35:24;8.70;99.90
4518;DHT22;2271;49.464;11.070;2022-11-12T09:37:49;8.80;99.90
4518;DHT22;2271;49.464;11.070;2022-11-12T09:40:18;8.90;99.90
4518;DHT22;2271;49.464;11.070;2022-11-12T09:42:51;8.90;99.90
4518;DHT22;2271;49.464;11.070;2022-11-12T09:45:27;9.00;99.90
4518;DHT22;2271;49.464;11.070;2022-11-12T09:47:58;9.10;99.90
4518;DHT22;2271;49.464;11.070;2022-11-12T09:50:29;9.30;99.90
4518;DHT22;2271;49.464;11.070;2022-11-12T09:53:10;10.60;99.90
4518;DHT22;2271;49.464;11.070;2022-11-12T09:55:43;11.40;99.90
4518;DHT22;2271;49.464;11.070;2022-11-12T09:58:14;11.90;99.90
4518;DHT22;2271;49.464;11.070;2022-11-12T10:01:02;11.50;99.90
4518;DHT22;2271;49.464;11.070;2022-11-12T10:03:45;10.90;99.90
4518;DHT22;2271;49.464;11.070;2022-11-12T10:06:19;10.40;99.90
4518;DHT22;2271;49.464;11.070;2022-11-12T10:09:16;10.10;99.90
4518;DHT22;2271;49.464;11.070;2022-11-12T10:12:04;9.80;99.90
4518;DHT22;2271;49.464;11.070;2022-11-12T10:19:04;9.70;99.90
4518;DHT22;2271;49.464;11.070;2022-11-12T10:24:14;9.80;99.90
4518;DHT22;2271;49.464;11.070;2022-11-12T10:26:40;9.80;99.90
4518;DHT22;2271;49.464;11.070;2022-11-12T10:29:13;9.90;99.90
4518;DHT22;2271;49.464;11.070;2022-11-12T10:31:42;9.80;99.90
4518;DHT22;2271;49.464;11.070;2022-11-12T10:36:59;9.90;99.90
4518;DHT22;2271;49.464;11.070;2022-11-12T10:39:39;9.90;99.90
4518;DHT22;2271;49.464;11.070;2022-11-12T10:42:11;10.00;99.90
4518;DHT22;2271;49.464;11.070;2022-11-12T10:44:38;10.10;99.90
4518;DHT22;2271;49.464;11.070;2022-11-12T10:55:28;10.20;99.90
4518;DHT22;2271;49.464;11.070;2022-11-12T11:00:34;10.30;99.90
4518;DHT22;2271;49.464;11.070;2022-11-12T11:03:23;10.40;99.90
4518;DHT22;2271;49.464;11.070;2022-11-12T11:08:39;10.50;99.90
4518;DHT22;2271;49.464;11.070;2022-11-12T11:11:27;10.50;99.90
4518;DHT22;2271;49.464;11.070;2022-11-12T11:14:27;10.50;99.90
4518;DHT22;2271;49.464;11.070;2022-11-12T11:16:57;10.60;99.90
4518;DHT22;2271;49.464;11.070;2022-11-12T11:19:31;10.70;99.90
4518;DHT22;2271;49.464;11.070;2022-11-12T11:24:37;10.80;99.90
4518;DHT22;2271;49.464;11.070;2022-11-12T11:30:13;10.90;99.90
4518;DHT22;2271;49.464;11.070;2022-11-12T11:41:10;11.10;99.90
4518;DHT22;2271;49.464;11.070;2022-11-12T11:43:51;11.20;99.90
4518;DHT22;2271;49.464;11.070;2022-11-12T11:46:42;11.20;99.90
4518;DHT22;2271;49.464;11.070;2022-11-12T11:49:49;11.20;99.90
4518;DHT22;2271;49.464;11.070;2022-11-12T11:57:28;11.40;99.90
4518;DHT22;2271;49.464;11.070;2022-11-12T12:00:08;11.60;99.90
4518;DHT22;2271;49.464;11.070;2022-11-12T12:02:45;11.60;99.90
4518;DHT22;2271;49.464;11.070;2022-11-12T12:05:32;11.70;99.90
4518;DHT22;2271;49.464;11.070;2022-11-12T12:08:11;11.70;99.90
4518;DHT22;2271;49.464;11.070;2022-11-12T12:16:33;12.10;99.90
4518;DHT22;2271;49.464;11.070;2022-11-12T12:19:24;12.10;99.90
4518;DHT22;2271;49.464;11.070;2022-11-12T12:21:52;12.10;99.90
4518;DHT22;2271;49.464;11.070;2022-11-12T12:29:45;12.00;99.90
4518;DHT22;2271;49.464;11.070;2022-11-12T12:34:57;12.10;99.90
4518;DHT22;2271;49.464;11.070;2022-11-12T12:40:22;12.20;99.90
4518;DHT22;2271;49.464;11.070;2022-11-12T12:45:42;12.30;99.90
4518;DHT22;2271;49.464;11.070;2022-11-12T12:48:26;12.30;99.90
4518;DHT22;2271;49.464;11.070;2022-11-12T12:50:52;12.20;99.90
4518;DHT22;2271;49.464;11.070;2022-11-12T12:55:49;12.30;99.90
4518;DHT22;2271;49.464;11.070;2022-11-12T12:58:16;12.20;99.90
4518;DHT22;2271;49.464;11.070;2022-11-12T13:00:51;12.30;99.90
4518;DHT22;2271;49.464;11.070;2022-11-12T13:09:00;12.30;99.90
4518;DHT22;2271;49.464;11.070;2022-11-12T13:19:46;12.30;99.90
4518;DHT22;2271;49.464;11.070;2022-11-12T13:46:24;12.20;99.90
4518;DHT22;2271;49.464;11.070;2022-11-12T13:53:57;12.10;99.90
4518;DHT22;2271;49.464;11.070;2022-11-12T13:58:53;12.10;99.90
4518;DHT22;2271;49.464;11.070;2022-11-12T14:01:19;12.10;99.90
4518;DHT22;2271;49.464;11.070;2022-11-12T14:03:49;12.10;99.90
4518;DHT22;2271;49.464;11.070;2022-11-12T14:06:34;12.00;99.90
4518;DHT22;2271;49.464;11.070;2022-11-12T14:22:42;12.10;99.90
4518;DHT22;2271;49.464;11.070;2022-11-12T14:27:43;12.20;99.90
4518;DHT22;2271;49.464;11.070;2022-11-12T14:32:43;12.00;99.90
4518;DHT22;2271;49.464;11.070;2022-11-12T14:35:28;12.00;99.90
4518;DHT22;2271;49.464;11.070;2022-11-12T14:37:58;12.10;99.90
4518;DHT22;2271;49.464;11.070;2022-11-12T14:40:27;12.20;99.90
4518;DHT22;2271;49.464;11.070;2022-11-12T14:42:53;12.20;99.90
4518;DHT22;2271;49.464;11.070;2022-11-12T14:45:21;12.20;99.90
4518;DHT22;2271;49.464;11.070;2022-11-12T14:47:49;12.00;99.90
4518;DHT22;2271;49.464;11.070;2022-11-12T14:52:51;11.90;99.90
4518;DHT22;2271;49.464;11.070;2022-11-12T14:55:21;11.90;99.90
4518;DHT22;2271;49.464;11.070;2022-11-12T14:57:47;11.90;99.90
4518;DHT22;2271;49.464;11.070;2022-11-12T15:00:38;11.80;99.90
4518;DHT22;2271;49.464;11.070;2022-11-12T15:03:05;11.70;99.90
4518;DHT22;2271;49.464;11.070;2022-11-12T15:05:31;11.70;99.90
4518;DHT22;2271;49.464;11.070;2022-11-12T15:08:05;11.70;99.90
4518;DHT22;2271;49.464;11.070;2022-11-12T15:13:09;11.70;99.90
4518;DHT22;2271;49.464;11.070;2022-11-12T15:15:38;11.70;99.90
4518;DHT22;2271;49.464;11.070;2022-11-12T15:18:20;11.70;99.90
4518;DHT22;2271;49.464;11.070;2022-11-12T15:23:30;11.80;99.90
4518;DHT22;2271;49.464;11.070;2022-11-12T15:26:00;11.80;99.90
4518;DHT22;2271;49.464;11.070;2022-11-12T15:28:26;11.80;99.90
4518;DHT22;2271;49.464;11.070;2022-11-12T15:31:18;11.70;99.90
4518;DHT22;2271;49.464;11.070;2022-11-12T15:33:44;11.60;99.90
4518;DHT22;2271;49.464;11.070;2022-11-12T15:36:21;11.50;99.90
4518;DHT22;2271;49.464;11.070;2022-11-12T15:38:49;11.50;99.90
4518;DHT22;2271;49.464;11.070;2022-11-12T15:41:27;11.50;99.90
4518;DHT22;2271;49.464;11.070;2022-11-12T15:43:53;11.50;99.90
4518;DHT22;2271;49.464;11.070;2022-11-12T15:46:19;11.60;99.90
4518;DHT22;2271;49.464;11.070;2022-11-12T15:48:45;11.60;99.90
4518;DHT22;2271;49.464;11.070;2022-11-12T15:51:11;11.60;99.90
4518;DHT22;2271;49.464;11.070;2022-11-12T15:53:36;11.60;99.90
4518;DHT22;2271;49.464;11.070;2022-11-12T15:56:03;11.60;99.90
4518;DHT22;2271;49.464;11.070;2022-11-12T15:58:32;11.60;99.90
4518;DHT22;2271;49.464;11.070;2022-11-12T16:00:58;11.50;99.90
4518;DHT22;2271;49.464;11.070;2022-11-12T16:03:24;11.50;99.90
4518;DHT22;2271;49.464;11.070;2022-11-12T16:05:51;11.40;99.90
4518;DHT22;2271;49.464;11.070;2022-11-12T16:08:19;11.30;99.90
4518;DHT22;2271;49.464;11.070;2022-11-12T16:10:45;11.10;99.90
4518;DHT22;2271;49.464;11.070;2022-11-12T16:13:31;10.90;99.90
4518;DHT22;2271;49.464;11.070;2022-11-12T16:16:03;10.80;99.90
4518;DHT22;2271;49.464;11.070;2022-11-12T16:18:30;10.70;99.90
4518;DHT22;2271;49.464;11.070;2022-11-12T16:20:56;10.60;99.90
4518;DHT22;2271;49.464;11.070;2022-11-12T16:23:22;10.40;99.90
4518;DHT22;2271;49.464;11.070;2022-11-12T16:25:47;10.40;99.90
4518;DHT22;2271;49.464;11.070;2022-11-12T16:28:15;10.30;99.90
4518;DHT22;2271;49.464;11.070;2022-11-12T16:30:42;10.40;99.90
4518;DHT22;2271;49.464;11.070;2022-11-12T16:33:09;10.40;99.90
4518;DHT22;2271;49.464;11.070;2022-11-12T16:35:35;10.40;99.90
4518;DHT22;2271;49.464;11.070;2022-11-12T16:38:01;10.40;99.90
4518;DHT22;2271;49.464;11.070;2022-11-12T16:40:28;10.40;99.90
4518;DHT22;2271;49.464;11.070;2022-11-12T16:42:55;10.30;99.90
4518;DHT22;2271;49.464;11.070;2022-11-12T16:45:23;10.40;99.90
4518;DHT22;2271;49.464;11.070;2022-11-12T16:47:51;10.30;99.90
4518;DHT22;2271;49.464;11.070;2022-11-12T16:50:20;10.30;99.90
4518;DHT22;2271;49.464;11.070;2022-11-12T16:52:47;10.30;99.90
4518;DHT22;2271;49.464;11.070;2022-11-12T16:55:12;10.20;99.90
4518;DHT22;2271;49.464;11.070;2022-11-12T16:57:38;10.30;99.90
4518;DHT22;2271;49.464;11.070;2022-11-12T17:00:06;10.30;99.90
4518;DHT22;2271;49.464;11.070;2022-11-12T17:02:32;10.30;99.90
4518;DHT22;2271;49.464;11.070;2022-11-12T17:05:04;10.30;99.90
4518;DHT22;2271;49.464;11.070;2022-11-12T17:07:30;10.20;99.90
4518;DHT22;2271;49.464;11.070;2022-11-12T17:09:56;10.20;99.90
4518;DHT22;2271;49.464;11.070;2022-11-12T17:12:22;10.20;99.90
4518;DHT22;2271;49.464;11.070;2022-11-12T17:14:47;10.20;99.90
4518;DHT22;2271;49.464;11.070;2022-11-12T17:17:13;10.20;99.90
4518;DHT22;2271;49.464;11.070;2022-11-12T17:19:39;10.10;99.90
4518;DHT22;2271;49.464;11.070;2022-11-12T17:22:04;10.10;99.90
4518;DHT22;2271;49.464;11.070;2022-11-12T17:24:30;10.10;99.90
4518;DHT22;2271;49.464;11.070;2022-11-12T17:26:55;10.10;99.90
4518;DHT22;2271;49.464;11.070;2022-11-12T17:29:22;10.10;99.90
4518;DHT22;2271;49.464;11.070;2022-11-12T17:31:49;10.10;99.90
4518;DHT22;2271;49.464;11.070;2022-11-12T17:34:15;10.00;99.90
4518;DHT22;2271;49.464;11.070;2022-11-12T17:36:40;10.00;99.90
4518;DHT22;2271;49.464;11.070;2022-11-12T17:39:09;10.00;99.90
4518;DHT22;2271;49.464;11.070;2022-11-12T17:41:35;10.00;99.90
4518;DHT22;2271;49.464;11.070;2022-11-12T17:44:01;10.00;99.90
4518;DHT22;2271;49.464;11.070;2022-11-12T17:46:28;10.00;99.90
4518;DHT22;2271;49.464;11.070;2022-11-12T17:48:54;10.00;99.90
4518;DHT22;2271;49.464;11.070;2022-11-12T17:51:22;10.00;99.90
4518;DHT22;2271;49.464;11.070;2022-11-12T17:53:48;10.00;99.90
4518;DHT22;2271;49.464;11.070;2022-11-12T17:56:21;10.00;99.90
4518;DHT22;2271;49.464;11.070;2022-11-12T17:58:48;10.00;99.90
4518;DHT22;2271;49.464;11.070;2022-11-12T18:01:18;9.90;99.90
4518;DHT22;2271;49.464;11.070;2022-11-12T18:03:45;9.90;99.90
4518;DHT22;2271;49.464;11.070;2022-11-12T18:06:17;9.90;99.90
4518;DHT22;2271;49.464;11.070;2022-11-12T18:08:44;9.80;99.90
4518;DHT22;2271;49.464;11.070;2022-11-12T18:11:11;9.80;99.90
4518;DHT22;2271;49.464;11.070;2022-11-12T18:13:37;9.80;99.90
4518;DHT22;2271;49.464;11.070;2022-11-12T18:16:38;9.70;99.90
4518;DHT22;2271;49.464;11.070;2022-11-12T18:19:05;9.70;99.90
4518;DHT22;2271;49.464;11.070;2022-11-12T18:21:33;9.70;99.90
4518;DHT22;2271;49.464;11.070;2022-11-12T18:23:59;9.60;99.90
4518;DHT22;2271;49.464;11.070;2022-11-12T18:26:24;9.60;99.90
4518;DHT22;2271;49.464;11.070;2022-11-12T18:28:51;9.60;99.90
4518;DHT22;2271;49.464;11.070;2022-11-12T18:31:18;9.50;99.90
4518;DHT22;2271;49.464;11.070;2022-11-12T18:33:44;9.60;99.90
4518;DHT22;2271;49.464;11.070;2022-11-12T18:36:11;9.60;99.90